createdAt,value
2023-04-21T00:02:49.722Z,100185.94
2023-04-21T00:05:52.384Z,100179.59
2023-04-21T00:08:54.959Z,100178.91
2023-04-21T00:11:58.215Z,100178.47
2023-04-21T00:15:00.847Z,100171.09
2023-04-21T00:18:03.930Z,100164.97
2023-04-21T00:21:06.392Z,100171.56
2023-04-21T00:24:09.329Z,100163.81
2023-04-21T00:27:11.966Z,100169.53
2023-04-21T00:30:14.563Z,100171.09
2023-04-21T00:33:16.711Z,100169.88
2023-04-21T00:36:19.175Z,100166.47
2023-04-21T00:39:22.428Z,100167.00
2023-04-21T00:42:25.736Z,100164.12
2023-04-21T00:45:27.998Z,100177.06
2023-04-21T00:48:31.859Z,100167.97
2023-04-21T00:51:36.120Z,100173.81
2023-04-21T00:54:39.783Z,100167.25
2023-04-21T00:57:42.214Z,100160.22
2023-04-21T01:00:44.759Z,100164.19
2023-04-21T01:03:47.668Z,100161.66
2023-04-21T01:06:50.944Z,100171.09
2023-04-21T01:09:53.164Z,100163.91
2023-04-21T01:12:55.635Z,100166.19
2023-04-21T01:15:57.775Z,100166.81
2023-04-21T01:19:01.631Z,100160.78
2023-04-21T01:22:04.288Z,100162.87
2023-04-21T01:25:07.195Z,100165.91
2023-04-21T01:28:09.419Z,100164.00
2023-04-21T01:31:11.983Z,100155.41
2023-04-21T01:34:14.769Z,100159.09
2023-04-21T01:37:20.954Z,100164.22
2023-04-21T01:40:23.137Z,100160.09
2023-04-21T01:43:26.067Z,100157.38
2023-04-21T01:46:28.392Z,100149.25
2023-04-21T01:49:32.263Z,100153.38
2023-04-21T01:52:34.452Z,100154.50
2023-04-21T01:55:37.102Z,100150.22
2023-04-21T01:58:43.465Z,100149.41
2023-04-21T02:01:45.946Z,100149.53
2023-04-21T02:04:48.442Z,100147.16
2023-04-21T02:07:50.704Z,100151.78
2023-04-21T02:10:53.170Z,100149.53
2023-04-21T02:13:55.837Z,100154.56
2023-04-21T02:16:58.364Z,100154.69
2023-04-21T02:20:03.998Z,100159.25
2023-04-21T02:23:06.423Z,100148.56
2023-04-21T02:26:09.351Z,100142.63
2023-04-21T02:29:11.595Z,100155.25
2023-04-21T02:32:24.782Z,100152.53
2023-04-21T02:35:28.121Z,100152.50
2023-04-21T02:38:30.779Z,100155.59
2023-04-21T02:41:33.044Z,100155.75
2023-04-21T02:44:38.873Z,100156.56
2023-04-21T02:47:42.513Z,100155.25
2023-04-21T02:50:45.047Z,100158.97
2023-04-21T02:53:47.406Z,100158.38
2023-04-21T02:56:49.882Z,100152.16
2023-04-21T02:59:52.098Z,100157.72
2023-04-21T03:02:54.774Z,100153.44
2023-04-21T03:06:01.531Z,100157.56
2023-04-21T03:09:04.048Z,100160.28
2023-04-21T03:12:06.293Z,100156.66
2023-04-21T03:15:12.794Z,100163.50
2023-04-21T03:18:14.982Z,100160.47
2023-04-21T03:21:17.902Z,100162.56
2023-04-21T03:24:21.429Z,100161.44
2023-04-21T03:27:24.147Z,100164.00
2023-04-21T03:30:26.460Z,100165.44
2023-04-21T03:33:29.162Z,100170.38
2023-04-21T03:36:31.393Z,100158.41
2023-04-21T03:39:34.765Z,100163.66
2023-04-21T03:42:37.501Z,100163.16
2023-04-21T03:45:40.327Z,100175.13
2023-04-21T03:48:42.541Z,100169.72
2023-04-21T03:51:45.059Z,100177.22
2023-04-21T03:54:47.246Z,100170.19
2023-04-21T03:57:49.663Z,100178.97
2023-04-21T04:00:51.859Z,100186.09
2023-04-21T04:03:54.546Z,100186.75
2023-04-21T04:06:57.503Z,100188.69
2023-04-21T04:10:00.028Z,100193.72
2023-04-21T04:13:02.209Z,100198.69
2023-04-21T04:16:05.077Z,100199.34
2023-04-21T04:19:07.805Z,100199.69
2023-04-21T04:22:10.528Z,100203.81
2023-04-21T04:25:17.105Z,100208.44
2023-04-21T04:28:19.617Z,100201.91
2023-04-21T04:31:25.183Z,100210.41
2023-04-21T04:34:27.664Z,100211.88
2023-04-21T04:37:29.797Z,100209.00
2023-04-21T04:40:33.729Z,100204.41
2023-04-21T04:43:41.786Z,100213.47
2023-04-21T04:46:45.535Z,100221.78
2023-04-21T04:49:47.826Z,100221.13
2023-04-21T04:52:51.183Z,100215.38
2023-04-21T04:55:53.774Z,100219.38
2023-04-21T04:58:56.281Z,100220.50
2023-04-21T05:01:59.782Z,100212.06
2023-04-21T05:05:02.813Z,100215.88
2023-04-21T05:08:05.264Z,100221.28
2023-04-21T05:11:08.357Z,100216.50
2023-04-21T05:14:10.628Z,100216.63
2023-04-21T05:17:13.218Z,100214.41
2023-04-21T05:20:16.058Z,100219.66
2023-04-21T05:23:19.064Z,100220.31
2023-04-21T05:26:21.413Z,100224.59
2023-04-21T05:29:23.927Z,100225.72
2023-04-21T05:32:26.680Z,100219.19
2023-04-21T05:35:35.040Z,100225.22
2023-04-21T05:38:38.491Z,100216.13
2023-04-21T05:41:42.208Z,100219.75
2023-04-21T05:44:44.663Z,100224.06
2023-04-21T05:47:47.395Z,100223.91
2023-04-21T05:50:52.373Z,100229.59
2023-04-21T05:53:57.453Z,100227.06
2023-04-21T05:57:01.799Z,100224.69
2023-04-21T06:00:05.231Z,100227.53
2023-04-21T06:03:21.666Z,100232.91
2023-04-21T06:06:38.272Z,100229.56
2023-04-21T06:10:05.542Z,100237.50
2023-04-21T06:13:21.691Z,100230.97
2023-04-21T06:16:50.965Z,100235.09
2023-04-21T06:20:07.265Z,100231.91
2023-04-21T06:23:36.291Z,100235.81
2023-04-21T06:27:00.252Z,100231.97
2023-04-21T06:30:16.261Z,100223.28
2023-04-21T06:33:39.247Z,100236.38
2023-04-21T06:36:42.692Z,100232.16
2023-04-21T06:39:45.480Z,100232.34
2023-04-21T06:42:47.988Z,100233.47
2023-04-21T06:45:50.623Z,100226.72
2023-04-21T06:48:52.718Z,100240.44
2023-04-21T06:51:55.664Z,100229.84
2023-04-21T06:54:57.932Z,100237.19
2023-04-21T06:58:00.765Z,100227.13
2023-04-21T07:01:03.021Z,100231.13
2023-04-21T07:04:06.864Z,100235.53
2023-04-21T07:07:09.142Z,100220.37
2023-04-21T07:10:11.690Z,100222.09
2023-04-21T07:13:19.656Z,100225.09
2023-04-21T07:16:24.782Z,100227.41
2023-04-21T07:19:27.539Z,100223.94
2023-04-21T07:22:30.027Z,100231.00
2023-04-21T07:25:32.229Z,100233.78
2023-04-21T07:28:34.696Z,100223.69
2023-04-21T07:31:36.947Z,100225.06
2023-04-21T07:34:40.134Z,100223.56
2023-04-21T07:37:42.416Z,100226.94
2023-04-21T07:40:45.047Z,100222.38
2023-04-21T07:43:47.444Z,100219.56
2023-04-21T07:46:49.886Z,100223.22
2023-04-21T07:49:52.115Z,100231.03
2023-04-21T07:52:54.760Z,100221.25
2023-04-21T07:55:57.054Z,100221.44
2023-04-21T07:58:59.519Z,100221.59
2023-04-21T08:02:02.135Z,100225.34
2023-04-21T08:05:05.109Z,100224.28
2023-04-21T08:08:07.450Z,100223.44
2023-04-21T08:11:10.951Z,100217.03
2023-04-21T08:14:13.707Z,100217.25
2023-04-21T08:17:16.294Z,100213.37
2023-04-21T08:20:18.540Z,100207.19
2023-04-21T08:23:21.302Z,100215.31
2023-04-21T08:26:25.088Z,100209.59
2023-04-21T08:29:28.358Z,100208.28
2023-04-21T08:32:30.714Z,100204.66
2023-04-21T08:35:34.449Z,100209.63
2023-04-21T08:38:37.713Z,100199.94
2023-04-21T08:41:43.159Z,100202.78
2023-04-21T08:44:46.000Z,100209.94
2023-04-21T08:47:49.303Z,100209.66
2023-04-21T08:50:53.774Z,100201.47
2023-04-21T08:53:59.241Z,100198.75
2023-04-21T08:57:14.708Z,100199.91
2023-04-21T09:00:22.490Z,100194.41
2023-04-21T09:03:29.668Z,100193.94
2023-04-21T09:06:47.564Z,100193.09
2023-04-21T09:09:56.911Z,100192.25
2023-04-21T09:13:10.051Z,100197.28
2023-04-21T09:16:22.642Z,100194.09
2023-04-21T09:19:30.357Z,100194.78
2023-04-21T09:22:40.205Z,100187.00
2023-04-21T09:25:47.526Z,100183.13
2023-04-21T09:28:53.952Z,100190.41
2023-04-21T09:32:00.262Z,100192.03
2023-04-21T09:35:05.161Z,100177.44
2023-04-21T09:38:14.405Z,100162.72
2023-04-21T09:41:21.587Z,100174.34
2023-04-21T09:44:27.429Z,100168.59
2023-04-21T09:47:41.421Z,100170.72
2023-04-21T09:51:22.938Z,100161.34
2023-04-21T09:54:30.190Z,100164.38
2023-04-21T09:57:40.944Z,100158.59
2023-04-21T10:00:47.603Z,100163.38
2023-04-21T10:03:51.777Z,100157.31
2023-04-21T10:06:55.606Z,100147.19
2023-04-21T10:10:00.728Z,100149.03
2023-04-21T10:13:03.452Z,100145.06
2023-04-21T10:16:10.532Z,100147.97
2023-04-21T10:19:27.776Z,100153.41
2023-04-21T10:22:35.234Z,100147.84
2023-04-21T10:25:39.337Z,100146.84
2023-04-21T10:28:48.976Z,100145.41
2023-04-21T10:31:53.567Z,100131.78
2023-04-21T10:34:56.793Z,100136.50
2023-04-21T10:37:58.985Z,100137.19
2023-04-21T10:41:29.998Z,100132.53
2023-04-21T10:44:32.147Z,100129.09
2023-04-21T10:47:43.481Z,100120.28
2023-04-21T10:50:48.870Z,100127.69
2023-04-21T10:53:51.521Z,100117.25
2023-04-21T10:56:59.256Z,100117.88
2023-04-21T11:00:05.859Z,100109.84
2023-04-21T11:03:08.896Z,100112.81
2023-04-21T11:06:16.025Z,100114.75
2023-04-21T11:09:18.284Z,100112.50
2023-04-21T11:12:20.746Z,100105.09
2023-04-21T11:15:23.165Z,100108.88
2023-04-21T11:18:38.848Z,100104.47
2023-04-21T11:21:41.484Z,100101.91
2023-04-21T11:24:47.578Z,100110.41
2023-04-21T11:27:54.837Z,100101.00
2023-04-21T11:30:57.708Z,100099.31
2023-04-21T11:34:01.055Z,100096.91
2023-04-21T11:37:04.165Z,100093.72
2023-04-21T11:40:07.795Z,100092.00
2023-04-21T11:43:10.488Z,100099.78
2023-04-21T11:46:33.677Z,100091.84
2023-04-21T11:49:44.937Z,100094.50
2023-04-21T11:52:48.430Z,100092.44
2023-04-21T11:55:51.091Z,100090.59
2023-04-21T11:58:53.580Z,100090.03
2023-04-21T12:01:56.053Z,100085.34
2023-04-21T12:05:12.202Z,100092.69
2023-04-21T12:08:16.297Z,100093.44
2023-04-21T12:11:18.788Z,100083.38
2023-04-21T12:14:22.979Z,100079.53
2023-04-21T12:17:25.561Z,100074.09
2023-04-21T12:20:29.743Z,100078.75
2023-04-21T12:23:32.663Z,100070.09
2023-04-21T12:26:34.904Z,100071.91
2023-04-21T12:29:38.483Z,100070.16
2023-04-21T12:32:41.433Z,100066.72
2023-04-21T12:35:44.192Z,100060.25
2023-04-21T12:38:46.331Z,100061.44
2023-04-21T12:41:49.020Z,100057.09
2023-04-21T12:44:51.201Z,100059.50
2023-04-21T12:47:54.933Z,100054.03
2023-04-21T12:50:57.224Z,100057.94
2023-04-21T12:53:59.708Z,100050.03
2023-04-21T12:57:02.367Z,100059.09
2023-04-21T13:00:05.897Z,100054.44
2023-04-21T13:03:08.149Z,100058.66
2023-04-21T13:06:10.954Z,100049.72
2023-04-21T13:09:13.127Z,100052.78
2023-04-21T13:12:15.512Z,100051.19
2023-04-21T13:15:17.718Z,100048.88
2023-04-21T13:18:20.298Z,100051.50
2023-04-21T13:21:22.484Z,100053.72
2023-04-21T13:24:26.781Z,100048.25
2023-04-21T13:27:29.044Z,100052.03
2023-04-21T13:30:31.628Z,100041.81
2023-04-21T13:33:35.129Z,100044.19
2023-04-21T13:36:37.662Z,100042.66
2023-04-21T13:39:39.974Z,100041.91
2023-04-21T13:42:42.599Z,100039.56
2023-04-21T13:45:46.022Z,100037.25
2023-04-21T13:48:50.390Z,100038.72
2023-04-21T13:51:52.518Z,100034.47
2023-04-21T13:54:55.180Z,100025.91
2023-04-21T13:58:00.598Z,100029.50
2023-04-21T14:01:04.019Z,100023.31
2023-04-21T14:04:07.069Z,100024.91
2023-04-21T14:07:09.455Z,100014.72
2023-04-21T14:10:14.748Z,100010.44
2023-04-21T14:13:27.524Z,100012.34
2023-04-21T14:16:38.966Z,100009.34
2023-04-21T14:19:41.265Z,100010.13
2023-04-21T14:22:43.757Z,99997.69
2023-04-21T14:25:46.209Z,99999.25
2023-04-21T14:28:49.777Z,100004.44
2023-04-21T14:31:53.801Z,100000.13
2023-04-21T14:34:58.554Z,99995.03
2023-04-21T14:38:00.941Z,100000.53
2023-04-21T14:41:03.544Z,99989.97
2023-04-21T14:44:05.723Z,99992.31
2023-04-21T14:47:10.775Z,99986.75
2023-04-21T14:50:13.290Z,99979.78
2023-04-21T14:53:15.952Z,99981.66
2023-04-21T14:56:19.420Z,99979.63
2023-04-21T14:59:23.184Z,99985.91
2023-04-21T15:02:25.638Z,99980.00
2023-04-21T15:05:28.466Z,99983.81
2023-04-21T15:08:30.811Z,99975.53
2023-04-21T15:11:33.365Z,99974.38
2023-04-21T15:14:35.693Z,99969.69
2023-04-21T15:17:38.247Z,99973.25
2023-04-21T15:20:45.320Z,99964.66
2023-04-21T15:23:48.323Z,99968.66
2023-04-21T15:26:50.583Z,99965.56
2023-04-21T15:29:53.079Z,99966.22
2023-04-21T15:32:55.316Z,99975.44
2023-04-21T15:35:57.763Z,99965.25
2023-04-21T15:39:00.131Z,99964.69
2023-04-21T15:42:04.253Z,99962.56
2023-04-21T15:45:07.174Z,99958.25
2023-04-21T15:48:09.737Z,99967.50
2023-04-21T15:51:12.795Z,99966.25
2023-04-21T15:54:16.024Z,99960.34
2023-04-21T15:57:18.169Z,99960.44
2023-04-21T16:00:20.886Z,99942.69
2023-04-21T16:03:23.495Z,99947.91
2023-04-21T16:06:26.603Z,99948.06
2023-04-21T16:09:29.577Z,99939.56
2023-04-21T16:12:31.705Z,99947.91
2023-04-21T16:15:34.417Z,99934.22
2023-04-21T16:18:36.743Z,99932.59
2023-04-21T16:21:40.148Z,99935.69
2023-04-21T16:24:42.972Z,99933.41
2023-04-21T16:27:45.853Z,99932.63
2023-04-21T16:30:48.362Z,99931.47
2023-04-21T16:33:52.502Z,99935.72
2023-04-21T16:36:54.821Z,99930.22
2023-04-21T16:39:57.329Z,99933.37
2023-04-21T16:42:59.625Z,99935.25
2023-04-21T16:46:02.060Z,99939.06
2023-04-21T16:49:04.223Z,99937.81
2023-04-21T16:52:06.902Z,99926.88
2023-04-21T16:55:09.263Z,99933.44
2023-04-21T16:58:11.701Z,99929.03
2023-04-21T17:01:13.919Z,99929.72
2023-04-21T17:04:16.455Z,99929.62
2023-04-21T17:07:18.662Z,99926.81
2023-04-21T17:10:21.149Z,99927.88
2023-04-21T17:13:23.327Z,99930.94
2023-04-21T17:16:25.829Z,99926.47
2023-04-21T17:19:28.639Z,99927.47
2023-04-21T17:22:31.271Z,99923.63
2023-04-21T17:25:34.009Z,99928.47
2023-04-21T17:28:36.717Z,99922.75
2023-04-21T17:31:39.039Z,99925.75
2023-04-21T17:34:41.500Z,99922.41
2023-04-21T17:37:43.728Z,99935.34
2023-04-21T17:40:46.180Z,99939.28
2023-04-21T17:43:48.520Z,99933.97
2023-04-21T17:46:50.942Z,99946.16
2023-04-21T17:49:53.163Z,99947.19
2023-04-21T17:52:55.732Z,99936.31
2023-04-21T17:55:58.237Z,99944.34
2023-04-21T17:59:01.132Z,99949.78
2023-04-21T18:02:03.537Z,99952.44
2023-04-21T18:05:06.909Z,99947.34
2023-04-21T18:08:09.409Z,99949.44
2023-04-21T18:11:12.341Z,99957.78
2023-04-21T18:14:14.521Z,99960.41
2023-04-21T18:17:17.651Z,99957.06
2023-04-21T18:20:20.001Z,99955.44
2023-04-21T18:23:22.446Z,99963.87
2023-04-21T18:26:26.557Z,99952.34
2023-04-21T18:29:28.996Z,99969.69
2023-04-21T18:32:33.706Z,99957.13
2023-04-21T18:35:36.289Z,99967.94
2023-04-21T18:38:38.415Z,99972.97
2023-04-21T18:41:41.046Z,99969.22
2023-04-21T18:44:43.300Z,99970.91
2023-04-21T18:47:46.836Z,99967.06
2023-04-21T18:50:49.076Z,99966.62
2023-04-21T18:53:51.555Z,99976.59
2023-04-21T18:56:53.753Z,99972.09
2023-04-21T18:59:56.266Z,99975.12
2023-04-21T19:03:01.859Z,99971.09
2023-04-21T19:06:04.597Z,99973.69
2023-04-21T19:09:06.793Z,99970.75
2023-04-21T19:12:09.241Z,99964.19
2023-04-21T19:15:12.064Z,99968.25
2023-04-21T19:18:14.589Z,99963.94
2023-04-21T19:21:16.741Z,99969.59
2023-04-21T19:24:22.492Z,99968.94
2023-04-21T19:27:24.684Z,99979.00
2023-04-21T19:30:27.122Z,99973.56
2023-04-21T19:33:29.499Z,99975.94
2023-04-21T19:36:32.481Z,99974.12
2023-04-21T19:39:34.614Z,99980.91
2023-04-21T19:42:38.849Z,99978.53
2023-04-21T19:45:43.186Z,99973.06
2023-04-21T19:48:45.624Z,99976.97
2023-04-21T19:51:47.746Z,99975.28
2023-04-21T19:54:50.447Z,99981.81
2023-04-21T19:57:52.749Z,99979.63
2023-04-21T20:00:55.419Z,99976.91
2023-04-21T20:03:58.922Z,99985.28
2023-04-21T20:07:01.278Z,99987.41
2023-04-21T20:10:05.703Z,99989.44
2023-04-21T20:13:07.829Z,99985.75
2023-04-21T20:16:10.428Z,99990.91
2023-04-21T20:19:12.661Z,99987.41
2023-04-21T20:22:15.372Z,99989.66
2023-04-21T20:25:17.771Z,99991.50
2023-04-21T20:28:20.545Z,99986.56
2023-04-21T20:31:25.466Z,99989.12
2023-04-21T20:34:28.288Z,99991.06
2023-04-21T20:37:33.437Z,99994.91
2023-04-21T20:40:36.568Z,99997.03
2023-04-21T20:43:39.500Z,99996.44
2023-04-21T20:46:42.091Z,99999.13
2023-04-21T20:49:44.465Z,100002.25
2023-04-21T20:52:46.869Z,99999.13
2023-04-21T20:55:49.162Z,99996.34
2023-04-21T20:58:51.622Z,99992.66
2023-04-21T21:01:53.809Z,99994.75
2023-04-21T21:04:56.306Z,100003.09
2023-04-21T21:07:58.765Z,99998.78
2023-04-21T21:11:01.221Z,99998.34
2023-04-21T21:14:03.380Z,100000.88
2023-04-21T21:17:05.981Z,99998.84
2023-04-21T21:20:08.728Z,100003.31
2023-04-21T21:23:11.730Z,100007.91
2023-04-21T21:26:14.002Z,100004.13
2023-04-21T21:29:16.487Z,100013.56
2023-04-21T21:32:18.890Z,100009.44
2023-04-21T21:35:21.650Z,100011.19
2023-04-21T21:38:23.798Z,100009.78
2023-04-21T21:41:26.284Z,100013.78
2023-04-21T21:44:28.804Z,100021.13
2023-04-21T21:47:31.378Z,100017.19
2023-04-21T21:50:33.810Z,100017.81
2023-04-21T21:53:36.323Z,100016.75
2023-04-21T21:56:39.461Z,100023.00
2023-04-21T21:59:42.146Z,100025.53
2023-04-21T22:02:44.429Z,100021.28
2023-04-21T22:05:47.529Z,100025.25
2023-04-21T22:08:49.764Z,100024.63
2023-04-21T22:11:52.241Z,100026.22
2023-04-21T22:14:54.438Z,100021.47
2023-04-21T22:17:56.961Z,100030.22
2023-04-21T22:20:59.658Z,100029.75
2023-04-21T22:24:02.413Z,100031.03
2023-04-21T22:27:04.653Z,100028.00
2023-04-21T22:30:08.024Z,100022.78
2023-04-21T22:33:10.347Z,100027.53
2023-04-21T22:36:12.837Z,100027.37
2023-04-21T22:39:15.028Z,100026.91
2023-04-21T22:42:17.724Z,100017.81
2023-04-21T22:45:19.888Z,100017.97
2023-04-21T22:48:26.129Z,100024.97
2023-04-21T22:51:29.720Z,100022.12
2023-04-21T22:54:32.211Z,100031.81
2023-04-21T22:57:36.015Z,100031.50
2023-04-21T23:00:38.616Z,100041.06
2023-04-21T23:03:40.898Z,100041.84
2023-04-21T23:06:43.404Z,100041.38
2023-04-21T23:09:45.912Z,100052.34
2023-04-21T23:12:48.479Z,100045.31
2023-04-21T23:15:50.645Z,100051.13
2023-04-21T23:18:53.048Z,100046.69
2023-04-21T23:21:55.485Z,100051.50
2023-04-21T23:24:57.994Z,100051.19
2023-04-21T23:28:00.219Z,100050.72
2023-04-21T23:31:02.655Z,100045.97
2023-04-21T23:34:04.834Z,100048.06
2023-04-21T23:37:07.294Z,100046.16
2023-04-21T23:40:11.191Z,100038.03
2023-04-21T23:43:13.789Z,100035.31
2023-04-21T23:46:16.544Z,100032.44
2023-04-21T23:49:19.247Z,100030.06
2023-04-21T23:52:21.496Z,100028.16
2023-04-21T23:55:23.920Z,100028.34
2023-04-21T23:58:26.111Z,100028.19
